sensor_id;sensor_type;location;lat;lon;timestamp;P1;durP1;ratioP1;P2;durP2;ratioP2
80707;SDS011;70222;49.204;-122.940;2023-05-29T00:00:20;5.45;;;3.05;;
80707;SDS011;70222;49.204;-122.940;2023-05-29T00:02:48;10.13;;;3.22;;
80707;SDS011;70222;49.204;-122.940;2023-05-29T00:05:16;5.72;;;3.25;;
80707;SDS011;70222;49.204;-122.940;2023-05-29T00:07:43;5.50;;;3.13;;
80707;SDS011;70222;49.204;-122.940;2023-05-29T00:10:09;5.82;;;3.38;;
80707;SDS011;70222;49.204;-122.940;2023-05-29T00:12:36;5.45;;;3.03;;
80707;SDS011;70222;49.204;-122.940;2023-05-29T00:15:04;6.65;;;3.42;;
80707;SDS011;70222;49.204;-122.940;2023-05-29T00:17:30;5.68;;;3.33;;
80707;SDS011;70222;49.204;-122.940;2023-05-29T00:20:00;7.50;;;3.13;;
80707;SDS011;70222;49.204;-122.940;2023-05-29T00:22:35;5.82;;;3.20;;
80707;SDS011;70222;49.204;-122.940;2023-05-29T00:25:07;4.47;;;3.13;;
80707;SDS011;70222;49.204;-122.940;2023-05-29T00:27:34;6.00;;;3.28;;
80707;SDS011;70222;49.204;-122.940;2023-05-29T00:30:01;4.93;;;3.10;;
80707;SDS011;70222;49.204;-122.940;2023-05-29T00:32:28;5.97;;;3.13;;
80707;SDS011;70222;49.204;-122.940;2023-05-29T00:34:54;6.90;;;3.60;;
80707;SDS011;70222;49.204;-122.940;2023-05-29T00:37:21;5.78;;;3.33;;
80707;SDS011;70222;49.204;-122.940;2023-05-29T00:43:09;5.65;;;2.88;;
80707;SDS011;70222;49.204;-122.940;2023-05-29T00:45:35;7.15;;;3.10;;
80707;SDS011;70222;49.204;-122.940;2023-05-29T00:48:02;7.32;;;3.60;;
80707;SDS011;70222;49.204;-122.940;2023-05-29T00:50:29;4.53;;;2.85;;
80707;SDS011;70222;49.204;-122.940;2023-05-29T00:52:56;6.07;;;3.38;;
80707;SDS011;70222;49.204;-122.940;2023-05-29T00:55:22;5.30;;;3.80;;
80707;SDS011;70222;49.204;-122.940;2023-05-29T00:57:49;7.80;;;3.80;;
80707;SDS011;70222;49.204;-122.940;2023-05-29T01:00:15;7.13;;;3.85;;
80707;SDS011;70222;49.204;-122.940;2023-05-29T01:02:43;6.75;;;3.72;;
80707;SDS011;70222;49.204;-122.940;2023-05-29T01:05:13;7.05;;;3.42;;
80707;SDS011;70222;49.204;-122.940;2023-05-29T01:07:42;7.07;;;3.83;;
80707;SDS011;70222;49.204;-122.940;2023-05-29T01:10:09;5.22;;;3.55;;
80707;SDS011;70222;49.204;-122.940;2023-05-29T01:18:38;5.28;;;3.13;;
80707;SDS011;70222;49.204;-122.940;2023-05-29T01:21:12;5.20;;;3.15;;
80707;SDS011;70222;49.204;-122.940;2023-05-29T01:26:35;4.30;;;3.00;;
80707;SDS011;70222;49.204;-122.940;2023-05-29T01:29:14;9.00;;;3.40;;
80707;SDS011;70222;49.204;-122.940;2023-05-29T01:31:41;6.88;;;3.10;;
80707;SDS011;70222;49.204;-122.940;2023-05-29T01:34:08;7.28;;;3.83;;
80707;SDS011;70222;49.204;-122.940;2023-05-29T01:36:34;5.88;;;3.03;;
80707;SDS011;70222;49.204;-122.940;2023-05-29T01:39:00;6.03;;;3.30;;
80707;SDS011;70222;49.204;-122.940;2023-05-29T01:41:26;5.85;;;3.30;;
80707;SDS011;70222;49.204;-122.940;2023-05-29T01:43:53;6.35;;;3.72;;
80707;SDS011;70222;49.204;-122.940;2023-05-29T01:46:20;5.70;;;3.00;;
80707;SDS011;70222;49.204;-122.940;2023-05-29T01:48:46;7.97;;;3.90;;
80707;SDS011;70222;49.204;-122.940;2023-05-29T01:51:12;8.38;;;3.55;;
80707;SDS011;70222;49.204;-122.940;2023-05-29T01:53:39;8.02;;;3.38;;
80707;SDS011;70222;49.204;-122.940;2023-05-29T01:56:06;6.22;;;3.58;;
80707;SDS011;70222;49.204;-122.940;2023-05-29T02:01:00;8.88;;;3.25;;
80707;SDS011;70222;49.204;-122.940;2023-05-29T02:03:29;6.28;;;2.90;;
80707;SDS011;70222;49.204;-122.940;2023-05-29T02:05:58;6.25;;;3.78;;
80707;SDS011;70222;49.204;-122.940;2023-05-29T02:08:25;6.22;;;3.05;;
80707;SDS011;70222;49.204;-122.940;2023-05-29T02:10:52;5.10;;;3.38;;
80707;SDS011;70222;49.204;-122.940;2023-05-29T02:13:18;6.30;;;3.40;;
80707;SDS011;70222;49.204;-122.940;2023-05-29T02:15:45;6.70;;;3.60;;
80707;SDS011;70222;49.204;-122.940;2023-05-29T02:18:13;7.32;;;3.30;;
80707;SDS011;70222;49.204;-122.940;2023-05-29T02:20:40;9.30;;;3.90;;
80707;SDS011;70222;49.204;-122.940;2023-05-29T02:23:09;8.48;;;3.70;;
80707;SDS011;70222;49.204;-122.940;2023-05-29T02:25:36;5.50;;;3.08;;
80707;SDS011;70222;49.204;-122.940;2023-05-29T02:28:02;6.38;;;3.75;;
80707;SDS011;70222;49.204;-122.940;2023-05-29T02:30:29;6.75;;;3.30;;
80707;SDS011;70222;49.204;-122.940;2023-05-29T02:32:55;7.88;;;4.03;;
80707;SDS011;70222;49.204;-122.940;2023-05-29T02:35:23;5.28;;;3.40;;
80707;SDS011;70222;49.204;-122.940;2023-05-29T02:37:50;6.70;;;3.45;;
80707;SDS011;70222;49.204;-122.940;2023-05-29T02:40:16;8.65;;;4.70;;
80707;SDS011;70222;49.204;-122.940;2023-05-29T02:42:43;4.78;;;2.95;;
80707;SDS011;70222;49.204;-122.940;2023-05-29T02:45:09;4.38;;;3.22;;
80707;SDS011;70222;49.204;-122.940;2023-05-29T02:47:36;4.88;;;2.90;;
80707;SDS011;70222;49.204;-122.940;2023-05-29T02:50:02;3.97;;;2.88;;
80707;SDS011;70222;49.204;-122.940;2023-05-29T02:52:29;4.47;;;2.90;;
80707;SDS011;70222;49.204;-122.940;2023-05-29T02:54:55;6.60;;;3.17;;
80707;SDS011;70222;49.204;-122.940;2023-05-29T02:57:22;5.10;;;3.17;;
80707;SDS011;70222;49.204;-122.940;2023-05-29T03:03:10;6.57;;;3.53;;
80707;SDS011;70222;49.204;-122.940;2023-05-29T03:05:36;4.75;;;2.97;;
80707;SDS011;70222;49.204;-122.940;2023-05-29T03:08:03;4.93;;;3.22;;
80707;SDS011;70222;49.204;-122.940;2023-05-29T03:10:29;4.40;;;3.05;;
80707;SDS011;70222;49.204;-122.940;2023-05-29T03:12:55;7.38;;;3.78;;
80707;SDS011;70222;49.204;-122.940;2023-05-29T03:15:21;6.63;;;3.20;;
80707;SDS011;70222;49.204;-122.940;2023-05-29T03:17:47;8.30;;;3.60;;
80707;SDS011;70222;49.204;-122.940;2023-05-29T03:20:13;7.32;;;3.42;;
80707;SDS011;70222;49.204;-122.940;2023-05-29T03:22:41;7.88;;;4.20;;
80707;SDS011;70222;49.204;-122.940;2023-05-29T03:25:07;10.68;;;3.72;;
80707;SDS011;70222;49.204;-122.940;2023-05-29T03:27:33;7.28;;;2.97;;
80707;SDS011;70222;49.204;-122.940;2023-05-29T03:29:59;3.85;;;2.90;;
80707;SDS011;70222;49.204;-122.940;2023-05-29T03:32:26;7.78;;;3.03;;
80707;SDS011;70222;49.204;-122.940;2023-05-29T03:34:52;6.43;;;3.97;;
80707;SDS011;70222;49.204;-122.940;2023-05-29T03:37:18;6.68;;;2.90;;
80707;SDS011;70222;49.204;-122.940;2023-05-29T03:39:44;7.03;;;2.92;;
80707;SDS011;70222;49.204;-122.940;2023-05-29T03:42:10;5.82;;;3.30;;
80707;SDS011;70222;49.204;-122.940;2023-05-29T03:44:36;6.97;;;3.58;;
80707;SDS011;70222;49.204;-122.940;2023-05-29T03:47:02;4.85;;;3.22;;
80707;SDS011;70222;49.204;-122.940;2023-05-29T03:49:28;7.25;;;3.38;;
80707;SDS011;70222;49.204;-122.940;2023-05-29T03:51:54;6.82;;;3.47;;
80707;SDS011;70222;49.204;-122.940;2023-05-29T03:54:20;5.72;;;2.97;;
80707;SDS011;70222;49.204;-122.940;2023-05-29T03:56:47;6.65;;;3.20;;
80707;SDS011;70222;49.204;-122.940;2023-05-29T03:59:13;6.35;;;3.45;;
80707;SDS011;70222;49.204;-122.940;2023-05-29T04:01:39;8.68;;;3.55;;
80707;SDS011;70222;49.204;-122.940;2023-05-29T04:04:05;8.02;;;3.33;;
80707;SDS011;70222;49.204;-122.940;2023-05-29T04:06:31;7.63;;;3.08;;
80707;SDS011;70222;49.204;-122.940;2023-05-29T04:08:57;7.60;;;3.30;;
80707;SDS011;70222;49.204;-122.940;2023-05-29T04:11:23;6.03;;;3.03;;
80707;SDS011;70222;49.204;-122.940;2023-05-29T04:13:49;10.30;;;3.83;;
80707;SDS011;70222;49.204;-122.940;2023-05-29T04:16:15;6.70;;;3.75;;
80707;SDS011;70222;49.204;-122.940;2023-05-29T04:18:41;5.63;;;2.97;;
80707;SDS011;70222;49.204;-122.940;2023-05-29T04:21:08;8.70;;;3.50;;
80707;SDS011;70222;49.204;-122.940;2023-05-29T04:23:34;5.60;;;3.20;;
80707;SDS011;70222;49.204;-122.940;2023-05-29T04:26:00;7.10;;;3.38;;
80707;SDS011;70222;49.204;-122.940;2023-05-29T04:28:30;7.72;;;4.18;;
80707;SDS011;70222;49.204;-122.940;2023-05-29T04:30:57;7.45;;;3.25;;
80707;SDS011;70222;49.204;-122.940;2023-05-29T04:33:23;6.90;;;2.88;;
80707;SDS011;70222;49.204;-122.940;2023-05-29T04:35:50;7.28;;;3.70;;
80707;SDS011;70222;49.204;-122.940;2023-05-29T04:38:16;7.80;;;4.68;;
80707;SDS011;70222;49.204;-122.940;2023-05-29T04:40:42;6.55;;;4.20;;
80707;SDS011;70222;49.204;-122.940;2023-05-29T04:43:09;6.95;;;4.82;;
80707;SDS011;70222;49.204;-122.940;2023-05-29T04:45:36;7.20;;;3.45;;
80707;SDS011;70222;49.204;-122.940;2023-05-29T04:48:03;11.77;;;3.83;;
80707;SDS011;70222;49.204;-122.940;2023-05-29T04:50:29;9.05;;;4.60;;
80707;SDS011;70222;49.204;-122.940;2023-05-29T04:52:56;6.90;;;4.38;;
80707;SDS011;70222;49.204;-122.940;2023-05-29T04:55:23;6.75;;;3.45;;
80707;SDS011;70222;49.204;-122.940;2023-05-29T04:57:49;8.95;;;4.72;;
80707;SDS011;70222;49.204;-122.940;2023-05-29T05:00:15;8.15;;;4.05;;
80707;SDS011;70222;49.204;-122.940;2023-05-29T05:02:43;9.93;;;4.10;;
80707;SDS011;70222;49.204;-122.940;2023-05-29T05:05:10;7.82;;;3.60;;
80707;SDS011;70222;49.204;-122.940;2023-05-29T05:07:36;6.97;;;4.28;;
80707;SDS011;70222;49.204;-122.940;2023-05-29T05:10:03;11.63;;;3.70;;
80707;SDS011;70222;49.204;-122.940;2023-05-29T05:12:29;7.40;;;4.15;;
80707;SDS011;70222;49.204;-122.940;2023-05-29T05:14:56;10.25;;;4.68;;
80707;SDS011;70222;49.204;-122.940;2023-05-29T05:17:22;7.40;;;4.07;;
80707;SDS011;70222;49.204;-122.940;2023-05-29T05:19:48;8.18;;;4.32;;
80707;SDS011;70222;49.204;-122.940;2023-05-29T05:22:14;8.70;;;4.95;;
80707;SDS011;70222;49.204;-122.940;2023-05-29T05:24:41;7.68;;;4.30;;
80707;SDS011;70222;49.204;-122.940;2023-05-29T05:27:07;9.77;;;3.78;;
80707;SDS011;70222;49.204;-122.940;2023-05-29T05:29:33;7.78;;;4.68;;
80707;SDS011;70222;49.204;-122.940;2023-05-29T05:31:59;8.27;;;4.28;;
80707;SDS011;70222;49.204;-122.940;2023-05-29T05:34:25;7.40;;;4.15;;
80707;SDS011;70222;49.204;-122.940;2023-05-29T05:36:51;13.23;;;5.63;;
80707;SDS011;70222;49.204;-122.940;2023-05-29T05:39:17;7.32;;;3.50;;
80707;SDS011;70222;49.204;-122.940;2023-05-29T05:41:44;9.55;;;4.00;;
80707;SDS011;70222;49.204;-122.940;2023-05-29T05:44:10;9.13;;;4.20;;
80707;SDS011;70222;49.204;-122.940;2023-05-29T05:46:36;11.40;;;4.22;;
80707;SDS011;70222;49.204;-122.940;2023-05-29T05:49:02;6.75;;;3.25;;
80707;SDS011;70222;49.204;-122.940;2023-05-29T05:51:28;6.85;;;3.53;;
80707;SDS011;70222;49.204;-122.940;2023-05-29T05:56:21;9.32;;;3.70;;
80707;SDS011;70222;49.204;-122.940;2023-05-29T05:58:48;7.13;;;4.18;;
80707;SDS011;70222;49.204;-122.940;2023-05-29T06:01:15;8.02;;;3.97;;
80707;SDS011;70222;49.204;-122.940;2023-05-29T06:03:41;8.55;;;3.55;;
80707;SDS011;70222;49.204;-122.940;2023-05-29T06:06:07;7.78;;;3.70;;
80707;SDS011;70222;49.204;-122.940;2023-05-29T06:08:35;7.90;;;4.35;;
80707;SDS011;70222;49.204;-122.940;2023-05-29T06:11:01;9.85;;;3.85;;
80707;SDS011;70222;49.204;-122.940;2023-05-29T06:13:27;5.47;;;3.33;;
80707;SDS011;70222;49.204;-122.940;2023-05-29T06:15:53;6.03;;;4.03;;
80707;SDS011;70222;49.204;-122.940;2023-05-29T06:18:19;7.32;;;4.70;;
80707;SDS011;70222;49.204;-122.940;2023-05-29T06:20:46;5.18;;;3.78;;
80707;SDS011;70222;49.204;-122.940;2023-05-29T06:23:12;8.18;;;4.18;;
80707;SDS011;70222;49.204;-122.940;2023-05-29T06:25:38;5.38;;;3.40;;
80707;SDS011;70222;49.204;-122.940;2023-05-29T06:28:04;6.82;;;4.03;;
80707;SDS011;70222;49.204;-122.940;2023-05-29T06:30:31;7.15;;;3.90;;
80707;SDS011;70222;49.204;-122.940;2023-05-29T06:32:58;6.35;;;3.42;;
80707;SDS011;70222;49.204;-122.940;2023-05-29T06:35:24;8.98;;;3.58;;
80707;SDS011;70222;49.204;-122.940;2023-05-29T06:37:50;6.05;;;3.60;;
80707;SDS011;70222;49.204;-122.940;2023-05-29T06:40:16;5.53;;;3.38;;
80707;SDS011;70222;49.204;-122.940;2023-05-29T06:42:42;7.90;;;3.65;;
80707;SDS011;70222;49.204;-122.940;2023-05-29T06:45:11;8.02;;;3.67;;
80707;SDS011;70222;49.204;-122.940;2023-05-29T06:47:43;7.35;;;3.53;;
80707;SDS011;70222;49.204;-122.940;2023-05-29T06:50:11;6.45;;;3.38;;
80707;SDS011;70222;49.204;-122.940;2023-05-29T06:52:37;8.30;;;3.60;;
80707;SDS011;70222;49.204;-122.940;2023-05-29T06:55:05;7.00;;;3.65;;
80707;SDS011;70222;49.204;-122.940;2023-05-29T06:57:32;6.22;;;3.20;;
80707;SDS011;70222;49.204;-122.940;2023-05-29T06:59:58;5.80;;;3.85;;
80707;SDS011;70222;49.204;-122.940;2023-05-29T07:02:24;9.15;;;3.92;;
80707;SDS011;70222;49.204;-122.940;2023-05-29T07:04:50;6.60;;;3.72;;
80707;SDS011;70222;49.204;-122.940;2023-05-29T07:07:16;7.93;;;3.97;;
80707;SDS011;70222;49.204;-122.940;2023-05-29T07:09:45;7.65;;;3.90;;
80707;SDS011;70222;49.204;-122.940;2023-05-29T07:12:14;8.60;;;3.63;;
80707;SDS011;70222;49.204;-122.940;2023-05-29T07:14:40;8.48;;;4.30;;
80707;SDS011;70222;49.204;-122.940;2023-05-29T07:17:07;7.00;;;3.60;;
80707;SDS011;70222;49.204;-122.940;2023-05-29T07:22:56;6.85;;;4.10;;
80707;SDS011;70222;49.204;-122.940;2023-05-29T07:25:22;5.82;;;3.20;;
80707;SDS011;70222;49.204;-122.940;2023-05-29T07:27:53;6.70;;;3.78;;
80707;SDS011;70222;49.204;-122.940;2023-05-29T07:30:19;6.88;;;3.25;;
80707;SDS011;70222;49.204;-122.940;2023-05-29T07:32:45;6.90;;;3.58;;
80707;SDS011;70222;49.204;-122.940;2023-05-29T07:35:11;6.68;;;3.83;;
80707;SDS011;70222;49.204;-122.940;2023-05-29T07:37:39;7.95;;;3.90;;
80707;SDS011;70222;49.204;-122.940;2023-05-29T07:40:05;8.48;;;4.07;;
80707;SDS011;70222;49.204;-122.940;2023-05-29T07:42:33;6.55;;;4.20;;
80707;SDS011;70222;49.204;-122.940;2023-05-29T07:47:25;6.35;;;4.18;;
80707;SDS011;70222;49.204;-122.940;2023-05-29T07:49:51;9.38;;;4.38;;
80707;SDS011;70222;49.204;-122.940;2023-05-29T07:52:18;6.32;;;4.45;;
80707;SDS011;70222;49.204;-122.940;2023-05-29T07:54:44;5.70;;;4.20;;
80707;SDS011;70222;49.204;-122.940;2023-05-29T07:57:10;6.88;;;4.32;;
80707;SDS011;70222;49.204;-122.940;2023-05-29T07:59:40;8.15;;;4.40;;
80707;SDS011;70222;49.204;-122.940;2023-05-29T08:02:07;7.20;;;4.18;;
80707;SDS011;70222;49.204;-122.940;2023-05-29T08:04:35;7.85;;;4.22;;
80707;SDS011;70222;49.204;-122.940;2023-05-29T08:07:02;6.80;;;3.47;;
80707;SDS011;70222;49.204;-122.940;2023-05-29T08:09:31;9.05;;;4.55;;
80707;SDS011;70222;49.204;-122.940;2023-05-29T08:11:57;7.78;;;3.67;;
80707;SDS011;70222;49.204;-122.940;2023-05-29T08:14:26;7.10;;;3.55;;
80707;SDS011;70222;49.204;-122.940;2023-05-29T08:16:52;7.38;;;4.40;;
80707;SDS011;70222;49.204;-122.940;2023-05-29T08:19:18;8.73;;;4.18;;
80707;SDS011;70222;49.204;-122.940;2023-05-29T08:21:45;7.38;;;3.75;;
80707;SDS011;70222;49.204;-122.940;2023-05-29T08:24:12;5.13;;;3.72;;
80707;SDS011;70222;49.204;-122.940;2023-05-29T08:26:41;7.70;;;3.75;;
80707;SDS011;70222;49.204;-122.940;2023-05-29T08:29:09;6.85;;;3.80;;
80707;SDS011;70222;49.204;-122.940;2023-05-29T08:34:03;8.88;;;3.50;;
80707;SDS011;70222;49.204;-122.940;2023-05-29T08:36:30;8.02;;;3.58;;
80707;SDS011;70222;49.204;-122.940;2023-05-29T08:38:57;9.35;;;3.65;;
80707;SDS011;70222;49.204;-122.940;2023-05-29T08:44:28;8.10;;;3.70;;
80707;SDS011;70222;49.204;-122.940;2023-05-29T08:47:02;7.10;;;4.07;;
80707;SDS011;70222;49.204;-122.940;2023-05-29T08:49:37;7.80;;;3.75;;
80707;SDS011;70222;49.204;-122.940;2023-05-29T08:52:16;6.60;;;4.05;;
80707;SDS011;70222;49.204;-122.940;2023-05-29T08:54:45;8.10;;;3.03;;
80707;SDS011;70222;49.204;-122.940;2023-05-29T08:57:11;7.85;;;3.33;;
80707;SDS011;70222;49.204;-122.940;2023-05-29T09:03:00;7.68;;;3.90;;
80707;SDS011;70222;49.204;-122.940;2023-05-29T09:05:26;7.53;;;3.67;;
80707;SDS011;70222;49.204;-122.940;2023-05-29T09:07:53;5.88;;;3.35;;
80707;SDS011;70222;49.204;-122.940;2023-05-29T09:12:47;5.00;;;2.75;;
80707;SDS011;70222;49.204;-122.940;2023-05-29T09:15:22;6.60;;;3.33;;
80707;SDS011;70222;49.204;-122.940;2023-05-29T09:17:52;11.75;;;4.20;;
80707;SDS011;70222;49.204;-122.940;2023-05-29T09:20:24;5.32;;;2.80;;
80707;SDS011;70222;49.204;-122.940;2023-05-29T09:22:54;5.65;;;3.00;;
80707;SDS011;70222;49.204;-122.940;2023-05-29T09:25:30;6.15;;;3.22;;
80707;SDS011;70222;49.204;-122.940;2023-05-29T09:27:58;8.80;;;3.42;;
80707;SDS011;70222;49.204;-122.940;2023-05-29T09:30:32;4.50;;;2.75;;
80707;SDS011;70222;49.204;-122.940;2023-05-29T09:33:01;8.85;;;4.32;;
80707;SDS011;70222;49.204;-122.940;2023-05-29T09:35:47;7.07;;;3.08;;
80707;SDS011;70222;49.204;-122.940;2023-05-29T09:38:16;7.05;;;3.47;;
80707;SDS011;70222;49.204;-122.940;2023-05-29T09:40:43;10.40;;;3.67;;
80707;SDS011;70222;49.204;-122.940;2023-05-29T09:43:13;5.68;;;3.20;;
80707;SDS011;70222;49.204;-122.940;2023-05-29T09:45:43;15.63;;;4.18;;
80707;SDS011;70222;49.204;-122.940;2023-05-29T09:48:12;7.78;;;4.32;;
80707;SDS011;70222;49.204;-122.940;2023-05-29T09:50:42;10.88;;;3.15;;
80707;SDS011;70222;49.204;-122.940;2023-05-29T09:53:17;8.45;;;3.55;;
80707;SDS011;70222;49.204;-122.940;2023-05-29T09:55:48;8.27;;;3.58;;
80707;SDS011;70222;49.204;-122.940;2023-05-29T09:58:18;8.02;;;3.25;;
80707;SDS011;70222;49.204;-122.940;2023-05-29T10:00:45;7.25;;;3.83;;
80707;SDS011;70222;49.204;-122.940;2023-05-29T10:03:12;6.75;;;3.45;;
80707;SDS011;70222;49.204;-122.940;2023-05-29T10:05:40;5.38;;;4.07;;
80707;SDS011;70222;49.204;-122.940;2023-05-29T10:08:13;7.00;;;2.78;;
80707;SDS011;70222;49.204;-122.940;2023-05-29T10:10:40;7.93;;;2.78;;
80707;SDS011;70222;49.204;-122.940;2023-05-29T10:13:12;4.90;;;2.72;;
80707;SDS011;70222;49.204;-122.940;2023-05-29T10:15:43;5.95;;;2.97;;
80707;SDS011;70222;49.204;-122.940;2023-05-29T10:18:20;8.32;;;3.35;;
80707;SDS011;70222;49.204;-122.940;2023-05-29T10:20:52;7.68;;;2.67;;
80707;SDS011;70222;49.204;-122.940;2023-05-29T10:23:24;5.93;;;2.40;;
80707;SDS011;70222;49.204;-122.940;2023-05-29T10:25:55;4.43;;;2.40;;
80707;SDS011;70222;49.204;-122.940;2023-05-29T10:28:29;6.05;;;2.72;;
80707;SDS011;70222;49.204;-122.940;2023-05-29T10:31:08;8.90;;;3.70;;
80707;SDS011;70222;49.204;-122.940;2023-05-29T10:36:24;6.15;;;3.05;;
80707;SDS011;70222;49.204;-122.940;2023-05-29T10:38:53;4.60;;;2.50;;
80707;SDS011;70222;49.204;-122.940;2023-05-29T10:44:02;5.75;;;2.55;;
80707;SDS011;70222;49.204;-122.940;2023-05-29T10:52:32;5.05;;;2.92;;
80707;SDS011;70222;49.204;-122.940;2023-05-29T10:54:58;9.82;;;2.85;;
80707;SDS011;70222;49.204;-122.940;2023-05-29T10:59:58;4.97;;;2.30;;
80707;SDS011;70222;49.204;-122.940;2023-05-29T11:02:40;4.00;;;2.30;;
80707;SDS011;70222;49.204;-122.940;2023-05-29T11:05:22;7.95;;;2.70;;
80707;SDS011;70222;49.204;-122.940;2023-05-29T11:08:00;5.85;;;2.58;;
80707;SDS011;70222;49.204;-122.940;2023-05-29T11:13:12;6.13;;;2.90;;
80707;SDS011;70222;49.204;-122.940;2023-05-29T11:16:11;7.18;;;3.03;;
80707;SDS011;70222;49.204;-122.940;2023-05-29T11:18:42;4.72;;;2.80;;
80707;SDS011;70222;49.204;-122.940;2023-05-29T11:21:25;6.32;;;3.10;;
80707;SDS011;70222;49.204;-122.940;2023-05-29T11:24:00;5.95;;;3.20;;
80707;SDS011;70222;49.204;-122.940;2023-05-29T11:26:31;8.02;;;3.97;;
80707;SDS011;70222;49.204;-122.940;2023-05-29T11:29:02;6.00;;;3.55;;
80707;SDS011;70222;49.204;-122.940;2023-05-29T11:31:31;8.23;;;3.20;;
80707;SDS011;70222;49.204;-122.940;2023-05-29T11:34:00;4.03;;;2.65;;
80707;SDS011;70222;49.204;-122.940;2023-05-29T11:36:32;6.70;;;2.78;;
80707;SDS011;70222;49.204;-122.940;2023-05-29T11:39:00;6.03;;;3.03;;
80707;SDS011;70222;49.204;-122.940;2023-05-29T11:41:28;7.00;;;2.80;;
80707;SDS011;70222;49.204;-122.940;2023-05-29T11:43:58;6.72;;;2.97;;
80707;SDS011;70222;49.204;-122.940;2023-05-29T11:46:27;4.75;;;3.20;;
80707;SDS011;70222;49.204;-122.940;2023-05-29T11:48:56;7.50;;;3.03;;
80707;SDS011;70222;49.204;-122.940;2023-05-29T11:51:23;4.32;;;2.72;;
80707;SDS011;70222;49.204;-122.940;2023-05-29T11:53:50;6.95;;;2.88;;
80707;SDS011;70222;49.204;-122.940;2023-05-29T11:56:23;5.32;;;3.20;;
80707;SDS011;70222;49.204;-122.940;2023-05-29T11:58:52;5.45;;;2.97;;
80707;SDS011;70222;49.204;-122.940;2023-05-29T12:01:22;6.15;;;3.25;;
80707;SDS011;70222;49.204;-122.940;2023-05-29T12:03:52;6.72;;;2.63;;
80707;SDS011;70222;49.204;-122.940;2023-05-29T12:06:32;4.75;;;2.58;;
80707;SDS011;70222;49.204;-122.940;2023-05-29T12:09:03;3.80;;;2.78;;
80707;SDS011;70222;49.204;-122.940;2023-05-29T12:11:30;5.20;;;2.90;;
80707;SDS011;70222;49.204;-122.940;2023-05-29T12:14:00;6.78;;;2.97;;
80707;SDS011;70222;49.204;-122.940;2023-05-29T12:16:30;4.38;;;2.35;;
80707;SDS011;70222;49.204;-122.940;2023-05-29T12:19:05;4.82;;;2.80;;
80707;SDS011;70222;49.204;-122.940;2023-05-29T12:21:31;4.72;;;2.60;;
80707;SDS011;70222;49.204;-122.940;2023-05-29T12:23:57;5.90;;;2.67;;
80707;SDS011;70222;49.204;-122.940;2023-05-29T12:26:23;4.47;;;2.72;;
80707;SDS011;70222;49.204;-122.940;2023-05-29T12:28:52;5.90;;;3.15;;
80707;SDS011;70222;49.204;-122.940;2023-05-29T12:31:28;7.68;;;2.58;;
80707;SDS011;70222;49.204;-122.940;2023-05-29T12:33:59;6.22;;;2.75;;
80707;SDS011;70222;49.204;-122.940;2023-05-29T12:36:26;7.25;;;2.83;;
80707;SDS011;70222;49.204;-122.940;2023-05-29T12:38:52;5.85;;;2.47;;
80707;SDS011;70222;49.204;-122.940;2023-05-29T12:41:25;6.90;;;3.05;;
80707;SDS011;70222;49.204;-122.940;2023-05-29T12:43:53;6.25;;;2.65;;
80707;SDS011;70222;49.204;-122.940;2023-05-29T12:46:20;7.00;;;3.00;;
80707;SDS011;70222;49.204;-122.940;2023-05-29T12:48:47;6.00;;;3.28;;
80707;SDS011;70222;49.204;-122.940;2023-05-29T12:51:17;8.98;;;2.80;;
80707;SDS011;70222;49.204;-122.940;2023-05-29T12:53:48;9.10;;;2.92;;
80707;SDS011;70222;49.204;-122.940;2023-05-29T12:56:14;6.38;;;2.80;;
80707;SDS011;70222;49.204;-122.940;2023-05-29T12:58:40;6.15;;;3.05;;
80707;SDS011;70222;49.204;-122.940;2023-05-29T13:01:11;8.10;;;3.20;;
80707;SDS011;70222;49.204;-122.940;2023-05-29T13:03:40;6.78;;;2.50;;
80707;SDS011;70222;49.204;-122.940;2023-05-29T13:06:06;5.70;;;2.33;;
80707;SDS011;70222;49.204;-122.940;2023-05-29T13:08:32;6.13;;;2.88;;
80707;SDS011;70222;49.204;-122.940;2023-05-29T13:11:01;5.57;;;2.63;;
80707;SDS011;70222;49.204;-122.940;2023-05-29T13:13:28;6.07;;;2.90;;
80707;SDS011;70222;49.204;-122.940;2023-05-29T13:15:54;5.88;;;2.55;;
80707;SDS011;70222;49.204;-122.940;2023-05-29T13:18:20;6.25;;;2.60;;
80707;SDS011;70222;49.204;-122.940;2023-05-29T13:20:46;7.82;;;2.60;;
80707;SDS011;70222;49.204;-122.940;2023-05-29T13:23:14;5.00;;;2.53;;
80707;SDS011;70222;49.204;-122.940;2023-05-29T13:25:40;5.40;;;2.70;;
80707;SDS011;70222;49.204;-122.940;2023-05-29T13:28:06;6.15;;;2.13;;
80707;SDS011;70222;49.204;-122.940;2023-05-29T13:30:34;6.20;;;2.70;;
80707;SDS011;70222;49.204;-122.940;2023-05-29T13:33:01;13.32;;;3.00;;
80707;SDS011;70222;49.204;-122.940;2023-05-29T13:35:28;7.28;;;2.50;;
80707;SDS011;70222;49.204;-122.940;2023-05-29T13:37:55;6.03;;;2.25;;
80707;SDS011;70222;49.204;-122.940;2023-05-29T13:40:22;4.78;;;2.35;;
80707;SDS011;70222;49.204;-122.940;2023-05-29T13:42:50;5.35;;;2.83;;
80707;SDS011;70222;49.204;-122.940;2023-05-29T13:45:17;7.18;;;2.63;;
80707;SDS011;70222;49.204;-122.940;2023-05-29T13:47:44;8.07;;;2.85;;
80707;SDS011;70222;49.204;-122.940;2023-05-29T13:50:10;6.47;;;2.78;;
80707;SDS011;70222;49.204;-122.940;2023-05-29T13:52:37;6.82;;;2.70;;
80707;SDS011;70222;49.204;-122.940;2023-05-29T13:55:05;5.22;;;2.78;;
80707;SDS011;70222;49.204;-122.940;2023-05-29T13:57:34;8.13;;;2.97;;
80707;SDS011;70222;49.204;-122.940;2023-05-29T14:00:02;6.70;;;2.70;;
80707;SDS011;70222;49.204;-122.940;2023-05-29T14:02:29;7.03;;;2.90;;
80707;SDS011;70222;49.204;-122.940;2023-05-29T14:04:55;5.75;;;2.72;;
80707;SDS011;70222;49.204;-122.940;2023-05-29T14:07:21;4.88;;;2.47;;
80707;SDS011;70222;49.204;-122.940;2023-05-29T14:09:48;5.47;;;2.75;;
80707;SDS011;70222;49.204;-122.940;2023-05-29T14:12:14;7.35;;;3.00;;
80707;SDS011;70222;49.204;-122.940;2023-05-29T14:14:40;8.82;;;3.05;;
80707;SDS011;70222;49.204;-122.940;2023-05-29T14:17:06;5.63;;;2.90;;
80707;SDS011;70222;49.204;-122.940;2023-05-29T14:19:34;5.00;;;2.88;;
80707;SDS011;70222;49.204;-122.940;2023-05-29T14:22:00;6.78;;;2.95;;
80707;SDS011;70222;49.204;-122.940;2023-05-29T14:24:26;5.63;;;2.58;;
80707;SDS011;70222;49.204;-122.940;2023-05-29T14:26:53;5.72;;;2.40;;
80707;SDS011;70222;49.204;-122.940;2023-05-29T14:29:20;9.32;;;2.63;;
80707;SDS011;70222;49.204;-122.940;2023-05-29T14:31:47;3.70;;;2.22;;
80707;SDS011;70222;49.204;-122.940;2023-05-29T14:34:13;4.65;;;2.75;;
80707;SDS011;70222;49.204;-122.940;2023-05-29T14:36:39;5.88;;;2.65;;
80707;SDS011;70222;49.204;-122.940;2023-05-29T14:39:10;4.97;;;2.47;;
80707;SDS011;70222;49.204;-122.940;2023-05-29T14:41:37;4.70;;;2.20;;
80707;SDS011;70222;49.204;-122.940;2023-05-29T14:44:04;5.68;;;3.08;;
80707;SDS011;70222;49.204;-122.940;2023-05-29T14:46:30;6.05;;;2.67;;
80707;SDS011;70222;49.204;-122.940;2023-05-29T14:51:23;5.65;;;2.92;;
80707;SDS011;70222;49.204;-122.940;2023-05-29T14:53:50;8.15;;;3.15;;
80707;SDS011;70222;49.204;-122.940;2023-05-29T14:56:16;6.63;;;3.13;;
80707;SDS011;70222;49.204;-122.940;2023-05-29T14:58:45;7.10;;;3.42;;
80707;SDS011;70222;49.204;-122.940;2023-05-29T15:01:13;9.60;;;4.05;;
80707;SDS011;70222;49.204;-122.940;2023-05-29T15:03:40;5.25;;;3.35;;
80707;SDS011;70222;49.204;-122.940;2023-05-29T15:06:08;7.28;;;3.10;;
80707;SDS011;70222;49.204;-122.940;2023-05-29T15:08:35;5.75;;;3.53;;